Huvudsida
METAR-TAF:

METAR-TAF

Flygplatser :

Mohamed Boudiaf International Airport

Constantine, Algeriet

latitud: 36-17N, longitud: 006-37E, höjd: 694 m

Aktuellt väderrapport

Denna rapport gjordes för 36 minuter sedan, klockan 05:30 UTC
Stilla vind
Temperatur 5°C
Fuktighet 81%
Tryck 1018 hPa
Sikt 10 km eller mer
Inga moln under 1 500 m eller inga cumulonimbus

METAR: DABC 160530Z 00000KT CAVOK 05/02 Q1018

Tid: 07:06 (06:06 UTC)

Väderprognos

Denna rapport gjordes för 1 timme och 6 minuter sedan, klockan 05:00 UTC
Prognos gäller från 16 kl. 06 UTC till 17 kl. 06 UTC
Vind 8 kt från väst/sydväst
Sikt 10 km eller mer
Inga moln under 1 500 m eller inga cumulonimbus

TAF: DABC 160500Z 1606/1706 24008KT CAVOK

Aktuella väderrapporter och prognoser från 4000 flygplatser (METAR- och TAF-rapporter).

De tillgängliga stationerna syns som gula och röda prickar på kartan.

För musen över prickarna för att se namnen på stationerna.

Klicka sedan för att få väderrapporter och prognoser.

För att ändra kartan: Klicka på de gröna knapparna med ett svart kors på för att zooma in; den gröna knappen med ett streck på för att zooma ut; eller på de gröna pilarna för angränsande kartor.


METAR-TAF: